sensor_id;sensor_type;location;lat;lon;timestamp;P1;durP1;ratioP1;P2;durP2;ratioP2
35562;SDS011;21665;40.108;18.302;2022-08-25T00:00:01;38.28;;;18.15;;
35562;SDS011;21665;40.108;18.302;2022-08-25T00:02:30;31.38;;;18.08;;
35562;SDS011;21665;40.108;18.302;2022-08-25T00:04:57;31.08;;;18.25;;
35562;SDS011;21665;40.108;18.302;2022-08-25T00:07:23;29.80;;;17.50;;
35562;SDS011;21665;40.108;18.302;2022-08-25T00:09:50;31.52;;;18.15;;
35562;SDS011;21665;40.108;18.302;2022-08-25T00:12:17;31.15;;;17.00;;
35562;SDS011;21665;40.108;18.302;2022-08-25T00:17:40;29.45;;;16.80;;
35562;SDS011;21665;40.108;18.302;2022-08-25T00:20:07;27.17;;;16.98;;
35562;SDS011;21665;40.108;18.302;2022-08-25T00:22:37;30.05;;;16.65;;
35562;SDS011;21665;40.108;18.302;2022-08-25T00:25:04;28.38;;;16.63;;
35562;SDS011;21665;40.108;18.302;2022-08-25T00:27:32;26.05;;;14.57;;
35562;SDS011;21665;40.108;18.302;2022-08-25T00:29:58;27.85;;;16.80;;
35562;SDS011;21665;40.108;18.302;2022-08-25T00:32:25;35.33;;;15.55;;
35562;SDS011;21665;40.108;18.302;2022-08-25T00:34:52;29.27;;;14.55;;
35562;SDS011;21665;40.108;18.302;2022-08-25T00:37:19;25.38;;;13.32;;
35562;SDS011;21665;40.108;18.302;2022-08-25T00:39:46;28.33;;;14.43;;
35562;SDS011;21665;40.108;18.302;2022-08-25T00:42:12;24.63;;;12.88;;
35562;SDS011;21665;40.108;18.302;2022-08-25T00:44:40;23.77;;;13.05;;
35562;SDS011;21665;40.108;18.302;2022-08-25T00:47:08;23.17;;;12.40;;
35562;SDS011;21665;40.108;18.302;2022-08-25T00:49:45;30.58;;;13.07;;
35562;SDS011;21665;40.108;18.302;2022-08-25T00:55:04;26.08;;;13.40;;
35562;SDS011;21665;40.108;18.302;2022-08-25T00:57:56;24.10;;;12.35;;
35562;SDS011;21665;40.108;18.302;2022-08-25T01:00:47;23.92;;;13.27;;
35562;SDS011;21665;40.108;18.302;2022-08-25T01:03:17;22.88;;;12.82;;
35562;SDS011;21665;40.108;18.302;2022-08-25T01:05:48;25.38;;;11.70;;
35562;SDS011;21665;40.108;18.302;2022-08-25T01:08:20;26.20;;;12.20;;
35562;SDS011;21665;40.108;18.302;2022-08-25T01:10:53;29.98;;;14.00;;
35562;SDS011;21665;40.108;18.302;2022-08-25T01:13:28;21.25;;;10.70;;
35562;SDS011;21665;40.108;18.302;2022-08-25T01:16:12;24.27;;;11.57;;
35562;SDS011;21665;40.108;18.302;2022-08-25T01:18:45;22.35;;;12.05;;
35562;SDS011;21665;40.108;18.302;2022-08-25T01:21:22;25.05;;;12.20;;
35562;SDS011;21665;40.108;18.302;2022-08-25T01:23:51;22.73;;;12.00;;
35562;SDS011;21665;40.108;18.302;2022-08-25T01:26:26;23.95;;;11.40;;
35562;SDS011;21665;40.108;18.302;2022-08-25T01:28:55;24.70;;;12.05;;
35562;SDS011;21665;40.108;18.302;2022-08-25T01:31:40;19.30;;;11.13;;
35562;SDS011;21665;40.108;18.302;2022-08-25T01:34:08;20.90;;;11.68;;
35562;SDS011;21665;40.108;18.302;2022-08-25T01:36:37;21.27;;;11.68;;
35562;SDS011;21665;40.108;18.302;2022-08-25T01:39:09;23.55;;;11.10;;
35562;SDS011;21665;40.108;18.302;2022-08-25T01:44:37;25.92;;;12.85;;
35562;SDS011;21665;40.108;18.302;2022-08-25T01:47:13;21.30;;;11.57;;
35562;SDS011;21665;40.108;18.302;2022-08-25T01:49:40;21.73;;;11.50;;
35562;SDS011;21665;40.108;18.302;2022-08-25T01:52:28;26.60;;;10.80;;
35562;SDS011;21665;40.108;18.302;2022-08-25T01:55:03;24.90;;;9.93;;
35562;SDS011;21665;40.108;18.302;2022-08-25T01:57:30;24.20;;;12.18;;
35562;SDS011;21665;40.108;18.302;2022-08-25T01:59:57;24.60;;;11.05;;
35562;SDS011;21665;40.108;18.302;2022-08-25T02:02:25;22.88;;;10.77;;
35562;SDS011;21665;40.108;18.302;2022-08-25T02:04:52;22.58;;;10.40;;
35562;SDS011;21665;40.108;18.302;2022-08-25T02:07:19;19.98;;;9.82;;
35562;SDS011;21665;40.108;18.302;2022-08-25T02:09:46;16.40;;;9.45;;
35562;SDS011;21665;40.108;18.302;2022-08-25T02:12:12;24.73;;;9.70;;
35562;SDS011;21665;40.108;18.302;2022-08-25T02:14:40;21.83;;;9.57;;
35562;SDS011;21665;40.108;18.302;2022-08-25T02:17:07;20.52;;;9.30;;
35562;SDS011;21665;40.108;18.302;2022-08-25T02:19:34;23.45;;;10.52;;
35562;SDS011;21665;40.108;18.302;2022-08-25T02:22:01;20.33;;;9.18;;
35562;SDS011;21665;40.108;18.302;2022-08-25T02:24:31;19.17;;;9.35;;
35562;SDS011;21665;40.108;18.302;2022-08-25T02:27:01;19.80;;;7.65;;
35562;SDS011;21665;40.108;18.302;2022-08-25T02:29:28;20.05;;;8.35;;
35562;SDS011;21665;40.108;18.302;2022-08-25T02:31:55;18.52;;;8.68;;
35562;SDS011;21665;40.108;18.302;2022-08-25T02:34:22;21.42;;;8.23;;
35562;SDS011;21665;40.108;18.302;2022-08-25T02:36:48;18.75;;;8.18;;
35562;SDS011;21665;40.108;18.302;2022-08-25T02:39:18;19.83;;;8.07;;
35562;SDS011;21665;40.108;18.302;2022-08-25T02:41:48;21.50;;;8.50;;
35562;SDS011;21665;40.108;18.302;2022-08-25T02:44:21;18.73;;;7.20;;
35562;SDS011;21665;40.108;18.302;2022-08-25T02:46:47;23.33;;;7.75;;
35562;SDS011;21665;40.108;18.302;2022-08-25T02:49:14;17.65;;;6.90;;
35562;SDS011;21665;40.108;18.302;2022-08-25T02:51:41;19.95;;;6.82;;
35562;SDS011;21665;40.108;18.302;2022-08-25T02:54:07;22.05;;;7.57;;
35562;SDS011;21665;40.108;18.302;2022-08-25T02:56:34;25.48;;;8.55;;
35562;SDS011;21665;40.108;18.302;2022-08-25T02:59:01;15.93;;;6.55;;
35562;SDS011;21665;40.108;18.302;2022-08-25T03:01:28;26.80;;;7.20;;
35562;SDS011;21665;40.108;18.302;2022-08-25T03:04:00;18.38;;;7.65;;
35562;SDS011;21665;40.108;18.302;2022-08-25T03:06:29;16.63;;;7.07;;
35562;SDS011;21665;40.108;18.302;2022-08-25T03:08:55;19.23;;;7.03;;
35562;SDS011;21665;40.108;18.302;2022-08-25T03:11:22;19.63;;;5.97;;
35562;SDS011;21665;40.108;18.302;2022-08-25T03:13:51;21.05;;;6.43;;
35562;SDS011;21665;40.108;18.302;2022-08-25T03:16:18;19.95;;;5.88;;
35562;SDS011;21665;40.108;18.302;2022-08-25T03:18:49;20.05;;;5.88;;
35562;SDS011;21665;40.108;18.302;2022-08-25T03:21:15;17.80;;;6.25;;
35562;SDS011;21665;40.108;18.302;2022-08-25T03:23:42;13.82;;;5.80;;
35562;SDS011;21665;40.108;18.302;2022-08-25T03:26:10;17.33;;;5.93;;
35562;SDS011;21665;40.108;18.302;2022-08-25T03:28:56;17.33;;;5.10;;
35562;SDS011;21665;40.108;18.302;2022-08-25T03:31:23;23.98;;;6.68;;
35562;SDS011;21665;40.108;18.302;2022-08-25T03:33:53;20.08;;;5.80;;
35562;SDS011;21665;40.108;18.302;2022-08-25T03:36:21;15.98;;;6.30;;
35562;SDS011;21665;40.108;18.302;2022-08-25T03:38:47;17.20;;;6.32;;
35562;SDS011;21665;40.108;18.302;2022-08-25T03:41:15;15.55;;;5.07;;
35562;SDS011;21665;40.108;18.302;2022-08-25T03:43:54;22.40;;;6.88;;
35562;SDS011;21665;40.108;18.302;2022-08-25T03:46:23;18.88;;;5.32;;
35562;SDS011;21665;40.108;18.302;2022-08-25T03:48:54;23.73;;;6.00;;
35562;SDS011;21665;40.108;18.302;2022-08-25T03:51:27;21.20;;;5.38;;
35562;SDS011;21665;40.108;18.302;2022-08-25T03:53:55;20.48;;;6.00;;
35562;SDS011;21665;40.108;18.302;2022-08-25T03:56:23;24.45;;;6.35;;
35562;SDS011;21665;40.108;18.302;2022-08-25T03:58:52;27.33;;;6.88;;
35562;SDS011;21665;40.108;18.302;2022-08-25T04:01:20;16.63;;;6.18;;
35562;SDS011;21665;40.108;18.302;2022-08-25T04:03:51;19.30;;;5.50;;
35562;SDS011;21665;40.108;18.302;2022-08-25T04:06:21;20.23;;;5.93;;
35562;SDS011;21665;40.108;18.302;2022-08-25T04:08:48;18.88;;;6.00;;
35562;SDS011;21665;40.108;18.302;2022-08-25T04:11:18;23.60;;;6.22;;
35562;SDS011;21665;40.108;18.302;2022-08-25T04:13:48;20.75;;;7.28;;
35562;SDS011;21665;40.108;18.302;2022-08-25T04:16:18;17.98;;;5.85;;
35562;SDS011;21665;40.108;18.302;2022-08-25T04:18:47;15.70;;;5.47;;
35562;SDS011;21665;40.108;18.302;2022-08-25T04:21:18;14.68;;;5.53;;
35562;SDS011;21665;40.108;18.302;2022-08-25T04:23:47;16.63;;;6.00;;
35562;SDS011;21665;40.108;18.302;2022-08-25T04:26:25;18.17;;;6.53;;
35562;SDS011;21665;40.108;18.302;2022-08-25T04:28:57;18.55;;;6.05;;
35562;SDS011;21665;40.108;18.302;2022-08-25T04:31:25;24.33;;;6.85;;
35562;SDS011;21665;40.108;18.302;2022-08-25T04:33:56;19.00;;;6.93;;
35562;SDS011;21665;40.108;18.302;2022-08-25T04:36:26;23.92;;;6.75;;
35562;SDS011;21665;40.108;18.302;2022-08-25T04:38:54;21.80;;;5.78;;
35562;SDS011;21665;40.108;18.302;2022-08-25T04:41:24;19.92;;;6.80;;
35562;SDS011;21665;40.108;18.302;2022-08-25T04:43:52;25.13;;;7.00;;
35562;SDS011;21665;40.108;18.302;2022-08-25T04:46:25;23.52;;;5.75;;
35562;SDS011;21665;40.108;18.302;2022-08-25T04:48:54;18.33;;;6.47;;
35562;SDS011;21665;40.108;18.302;2022-08-25T04:51:25;21.80;;;6.88;;
35562;SDS011;21665;40.108;18.302;2022-08-25T04:53:59;23.73;;;7.57;;
35562;SDS011;21665;40.108;18.302;2022-08-25T04:56:30;18.98;;;6.57;;
35562;SDS011;21665;40.108;18.302;2022-08-25T04:59:05;22.83;;;6.82;;
35562;SDS011;21665;40.108;18.302;2022-08-25T05:01:35;21.25;;;8.25;;
35562;SDS011;21665;40.108;18.302;2022-08-25T05:04:06;27.15;;;8.20;;
35562;SDS011;21665;40.108;18.302;2022-08-25T05:06:35;18.73;;;7.57;;
35562;SDS011;21665;40.108;18.302;2022-08-25T05:09:02;22.77;;;8.10;;
35562;SDS011;21665;40.108;18.302;2022-08-25T05:11:30;19.92;;;7.50;;
35562;SDS011;21665;40.108;18.302;2022-08-25T05:13:58;22.38;;;9.15;;
35562;SDS011;21665;40.108;18.302;2022-08-25T05:16:29;18.73;;;8.77;;
35562;SDS011;21665;40.108;18.302;2022-08-25T05:18:56;29.60;;;10.05;;
35562;SDS011;21665;40.108;18.302;2022-08-25T05:21:24;24.60;;;9.88;;
35562;SDS011;21665;40.108;18.302;2022-08-25T05:23:55;23.48;;;8.27;;
35562;SDS011;21665;40.108;18.302;2022-08-25T05:26:29;20.33;;;7.85;;
35562;SDS011;21665;40.108;18.302;2022-08-25T05:28:59;18.20;;;8.18;;
35562;SDS011;21665;40.108;18.302;2022-08-25T05:31:32;17.85;;;6.97;;
35562;SDS011;21665;40.108;18.302;2022-08-25T05:34:03;27.67;;;9.55;;
35562;SDS011;21665;40.108;18.302;2022-08-25T05:36:38;16.13;;;7.18;;
35562;SDS011;21665;40.108;18.302;2022-08-25T05:39:08;21.98;;;7.70;;
35562;SDS011;21665;40.108;18.302;2022-08-25T05:41:35;19.05;;;6.97;;
35562;SDS011;21665;40.108;18.302;2022-08-25T05:44:02;30.65;;;8.60;;
35562;SDS011;21665;40.108;18.302;2022-08-25T05:46:29;30.63;;;9.80;;
35562;SDS011;21665;40.108;18.302;2022-08-25T05:48:55;27.52;;;8.40;;
35562;SDS011;21665;40.108;18.302;2022-08-25T05:51:22;23.05;;;8.27;;
35562;SDS011;21665;40.108;18.302;2022-08-25T05:53:49;26.27;;;8.10;;
35562;SDS011;21665;40.108;18.302;2022-08-25T05:56:17;22.02;;;7.80;;
35562;SDS011;21665;40.108;18.302;2022-08-25T05:58:44;16.63;;;7.97;;
35562;SDS011;21665;40.108;18.302;2022-08-25T06:01:19;22.05;;;8.55;;
35562;SDS011;21665;40.108;18.302;2022-08-25T06:04:09;22.42;;;8.07;;
35562;SDS011;21665;40.108;18.302;2022-08-25T06:06:36;16.95;;;7.45;;
35562;SDS011;21665;40.108;18.302;2022-08-25T06:09:04;24.15;;;8.07;;
35562;SDS011;21665;40.108;18.302;2022-08-25T06:11:34;23.85;;;10.07;;
35562;SDS011;21665;40.108;18.302;2022-08-25T06:14:01;19.42;;;8.25;;
35562;SDS011;21665;40.108;18.302;2022-08-25T06:16:36;18.70;;;8.38;;
35562;SDS011;21665;40.108;18.302;2022-08-25T06:19:03;16.55;;;7.97;;
35562;SDS011;21665;40.108;18.302;2022-08-25T06:21:31;17.65;;;8.02;;
35562;SDS011;21665;40.108;18.302;2022-08-25T06:23:58;24.95;;;9.60;;
35562;SDS011;21665;40.108;18.302;2022-08-25T06:26:31;21.00;;;10.00;;
35562;SDS011;21665;40.108;18.302;2022-08-25T06:28:58;23.73;;;9.25;;
35562;SDS011;21665;40.108;18.302;2022-08-25T06:35:06;18.10;;;8.90;;
35562;SDS011;21665;40.108;18.302;2022-08-25T06:41:23;29.70;;;9.73;;
35562;SDS011;21665;40.108;18.302;2022-08-25T06:50:53;21.17;;;10.30;;
35562;SDS011;21665;40.108;18.302;2022-08-25T07:13:38;22.15;;;11.35;;
35562;SDS011;21665;40.108;18.302;2022-08-25T07:16:33;23.23;;;11.48;;
35562;SDS011;21665;40.108;18.302;2022-08-25T07:19:00;18.10;;;11.25;;
35562;SDS011;21665;40.108;18.302;2022-08-25T07:21:30;24.80;;;14.02;;
35562;SDS011;21665;40.108;18.302;2022-08-25T10:09:52;25.88;;;16.50;;
35562;SDS011;21665;40.108;18.302;2022-08-25T11:12:12;22.42;;;16.30;;
35562;SDS011;21665;40.108;18.302;2022-08-25T11:14:48;20.30;;;15.98;;
35562;SDS011;21665;40.108;18.302;2022-08-25T11:17:33;22.27;;;15.82;;
35562;SDS011;21665;40.108;18.302;2022-08-25T11:20:21;23.35;;;17.08;;
35562;SDS011;21665;40.108;18.302;2022-08-25T11:23:12;21.40;;;18.73;;
35562;SDS011;21665;40.108;18.302;2022-08-25T11:25:52;27.10;;;23.15;;
35562;SDS011;21665;40.108;18.302;2022-08-25T11:28:35;20.70;;;18.65;;
35562;SDS011;21665;40.108;18.302;2022-08-25T11:31:23;19.30;;;17.58;;
35562;SDS011;21665;40.108;18.302;2022-08-25T11:33:52;21.42;;;18.75;;
35562;SDS011;21665;40.108;18.302;2022-08-25T11:36:30;19.35;;;17.40;;
35562;SDS011;21665;40.108;18.302;2022-08-25T11:39:35;17.73;;;16.10;;
35562;SDS011;21665;40.108;18.302;2022-08-25T11:54:20;18.75;;;16.63;;
35562;SDS011;21665;40.108;18.302;2022-08-25T11:57:04;17.02;;;15.63;;
35562;SDS011;21665;40.108;18.302;2022-08-25T12:04:50;15.95;;;14.65;;
35562;SDS011;21665;40.108;18.302;2022-08-25T12:10:58;16.33;;;15.02;;
35562;SDS011;21665;40.108;18.302;2022-08-25T12:13:37;15.25;;;14.07;;
35562;SDS011;21665;40.108;18.302;2022-08-25T12:16:43;16.10;;;14.90;;
35562;SDS011;21665;40.108;18.302;2022-08-25T12:25:05;22.67;;;20.10;;
35562;SDS011;21665;40.108;18.302;2022-08-25T12:30:56;20.65;;;18.45;;
35562;SDS011;21665;40.108;18.302;2022-08-25T12:36:28;22.67;;;20.42;;
35562;SDS011;21665;40.108;18.302;2022-08-25T12:45:30;28.60;;;21.58;;
35562;SDS011;21665;40.108;18.302;2022-08-25T12:59:51;25.20;;;20.73;;
35562;SDS011;21665;40.108;18.302;2022-08-25T13:10:49;22.25;;;17.23;;
35562;SDS011;21665;40.108;18.302;2022-08-25T13:13:30;20.52;;;17.50;;
35562;SDS011;21665;40.108;18.302;2022-08-25T13:16:26;20.90;;;17.25;;
35562;SDS011;21665;40.108;18.302;2022-08-25T13:18:54;19.13;;;17.13;;
35562;SDS011;21665;40.108;18.302;2022-08-25T13:23:55;23.65;;;19.50;;
35562;SDS011;21665;40.108;18.302;2022-08-25T13:26:29;21.42;;;17.50;;
35562;SDS011;21665;40.108;18.302;2022-08-25T13:29:13;30.40;;;18.00;;
35562;SDS011;21665;40.108;18.302;2022-08-25T13:31:51;22.70;;;17.75;;
35562;SDS011;21665;40.108;18.302;2022-08-25T13:34:23;19.80;;;17.77;;
35562;SDS011;21665;40.108;18.302;2022-08-25T13:36:52;20.70;;;18.60;;
35562;SDS011;21665;40.108;18.302;2022-08-25T13:39:37;20.73;;;18.45;;
35562;SDS011;21665;40.108;18.302;2022-08-25T13:42:05;19.13;;;17.08;;
35562;SDS011;21665;40.108;18.302;2022-08-25T13:44:38;20.90;;;18.10;;
35562;SDS011;21665;40.108;18.302;2022-08-25T13:49:41;21.20;;;18.35;;
35562;SDS011;21665;40.108;18.302;2022-08-25T13:52:28;22.70;;;18.08;;
35562;SDS011;21665;40.108;18.302;2022-08-25T13:54:58;20.73;;;18.05;;
35562;SDS011;21665;40.108;18.302;2022-08-25T13:57:26;22.63;;;17.77;;
35562;SDS011;21665;40.108;18.302;2022-08-25T13:59:56;17.27;;;15.75;;
35562;SDS011;21665;40.108;18.302;2022-08-25T14:02:41;20.33;;;16.42;;
35562;SDS011;21665;40.108;18.302;2022-08-25T14:08:06;19.50;;;17.05;;
35562;SDS011;21665;40.108;18.302;2022-08-25T14:11:00;20.15;;;17.08;;
35562;SDS011;21665;40.108;18.302;2022-08-25T14:13:42;19.05;;;16.90;;
35562;SDS011;21665;40.108;18.302;2022-08-25T14:19:16;18.85;;;16.85;;
35562;SDS011;21665;40.108;18.302;2022-08-25T14:21:46;20.23;;;17.77;;
35562;SDS011;21665;40.108;18.302;2022-08-25T14:24:16;18.10;;;16.35;;
35562;SDS011;21665;40.108;18.302;2022-08-25T14:26:45;20.33;;;16.70;;
35562;SDS011;21665;40.108;18.302;2022-08-25T14:29:12;18.88;;;17.08;;
35562;SDS011;21665;40.108;18.302;2022-08-25T14:31:40;20.17;;;17.83;;
35562;SDS011;21665;40.108;18.302;2022-08-25T14:34:13;18.73;;;16.88;;
35562;SDS011;21665;40.108;18.302;2022-08-25T14:36:42;19.05;;;17.15;;
35562;SDS011;21665;40.108;18.302;2022-08-25T14:39:11;19.83;;;16.10;;
35562;SDS011;21665;40.108;18.302;2022-08-25T14:41:44;21.55;;;18.42;;
35562;SDS011;21665;40.108;18.302;2022-08-25T14:44:12;25.15;;;17.40;;
35562;SDS011;21665;40.108;18.302;2022-08-25T14:46:48;20.70;;;17.27;;
35562;SDS011;21665;40.108;18.302;2022-08-25T14:49:25;19.42;;;17.38;;
35562;SDS011;21665;40.108;18.302;2022-08-25T14:52:13;21.77;;;18.27;;
35562;SDS011;21665;40.108;18.302;2022-08-25T14:54:49;21.70;;;17.77;;
35562;SDS011;21665;40.108;18.302;2022-08-25T14:57:16;21.70;;;18.02;;
35562;SDS011;21665;40.108;18.302;2022-08-25T14:59:45;20.70;;;17.60;;
35562;SDS011;21665;40.108;18.302;2022-08-25T15:02:12;24.88;;;18.40;;
35562;SDS011;21665;40.108;18.302;2022-08-25T15:04:58;20.42;;;18.15;;
35562;SDS011;21665;40.108;18.302;2022-08-25T15:07:31;22.75;;;18.60;;
35562;SDS011;21665;40.108;18.302;2022-08-25T15:10:17;21.13;;;18.08;;
35562;SDS011;21665;40.108;18.302;2022-08-25T15:13:07;20.75;;;18.63;;
35562;SDS011;21665;40.108;18.302;2022-08-25T15:21:27;20.73;;;18.45;;
35562;SDS011;21665;40.108;18.302;2022-08-25T15:24:03;21.90;;;19.80;;
35562;SDS011;21665;40.108;18.302;2022-08-25T15:26:36;23.23;;;18.75;;
35562;SDS011;21665;40.108;18.302;2022-08-25T15:29:11;21.05;;;18.38;;
35562;SDS011;21665;40.108;18.302;2022-08-25T15:31:51;25.90;;;18.75;;
35562;SDS011;21665;40.108;18.302;2022-08-25T15:37:28;25.23;;;18.65;;
35562;SDS011;21665;40.108;18.302;2022-08-25T15:40:26;20.15;;;17.90;;
35562;SDS011;21665;40.108;18.302;2022-08-25T15:43:15;22.02;;;18.15;;
35562;SDS011;21665;40.108;18.302;2022-08-25T15:46:08;22.23;;;18.45;;
35562;SDS011;21665;40.108;18.302;2022-08-25T15:48:41;26.88;;;19.33;;
35562;SDS011;21665;40.108;18.302;2022-08-25T16:02:52;23.67;;;17.60;;
35562;SDS011;21665;40.108;18.302;2022-08-25T16:07:47;20.60;;;18.35;;
35562;SDS011;21665;40.108;18.302;2022-08-25T16:37:02;23.00;;;19.10;;
35562;SDS011;21665;40.108;18.302;2022-08-25T16:39:30;21.48;;;19.00;;
35562;SDS011;21665;40.108;18.302;2022-08-25T16:42:10;22.48;;;18.85;;
35562;SDS011;21665;40.108;18.302;2022-08-25T16:44:37;23.95;;;20.45;;
35562;SDS011;21665;40.108;18.302;2022-08-25T16:47:04;22.50;;;20.20;;
35562;SDS011;21665;40.108;18.302;2022-08-25T16:49:30;24.23;;;18.17;;
35562;SDS011;21665;40.108;18.302;2022-08-25T16:51:57;22.42;;;17.58;;
35562;SDS011;21665;40.108;18.302;2022-08-25T16:54:23;23.42;;;18.23;;
35562;SDS011;21665;40.108;18.302;2022-08-25T16:57:09;22.40;;;18.60;;
35562;SDS011;21665;40.108;18.302;2022-08-25T16:59:36;31.75;;;19.13;;
35562;SDS011;21665;40.108;18.302;2022-08-25T17:02:03;21.88;;;18.15;;
35562;SDS011;21665;40.108;18.302;2022-08-25T17:04:30;32.28;;;18.60;;
35562;SDS011;21665;40.108;18.302;2022-08-25T17:06:57;20.98;;;18.90;;
35562;SDS011;21665;40.108;18.302;2022-08-25T17:09:23;24.80;;;19.17;;
35562;SDS011;21665;40.108;18.302;2022-08-25T17:11:49;22.48;;;18.65;;
35562;SDS011;21665;40.108;18.302;2022-08-25T17:14:21;21.35;;;18.00;;
35562;SDS011;21665;40.108;18.302;2022-08-25T17:16:47;23.67;;;18.92;;
35562;SDS011;21665;40.108;18.302;2022-08-25T17:19:17;19.98;;;17.98;;
35562;SDS011;21665;40.108;18.302;2022-08-25T17:21:43;24.75;;;19.20;;
35562;SDS011;21665;40.108;18.302;2022-08-25T17:24:13;21.77;;;18.50;;
35562;SDS011;21665;40.108;18.302;2022-08-25T17:26:42;25.27;;;18.77;;
35562;SDS011;21665;40.108;18.302;2022-08-25T17:29:15;21.20;;;18.38;;
35562;SDS011;21665;40.108;18.302;2022-08-25T17:31:42;22.00;;;17.83;;
35562;SDS011;21665;40.108;18.302;2022-08-25T17:34:12;26.10;;;18.58;;
35562;SDS011;21665;40.108;18.302;2022-08-25T17:36:39;23.75;;;18.40;;
35562;SDS011;21665;40.108;18.302;2022-08-25T17:39:08;21.90;;;18.35;;
35562;SDS011;21665;40.108;18.302;2022-08-25T17:41:36;22.77;;;18.55;;
35562;SDS011;21665;40.108;18.302;2022-08-25T17:44:02;23.83;;;18.85;;
35562;SDS011;21665;40.108;18.302;2022-08-25T17:46:32;23.27;;;19.05;;
35562;SDS011;21665;40.108;18.302;2022-08-25T17:48:59;22.33;;;19.95;;
35562;SDS011;21665;40.108;18.302;2022-08-25T17:51:25;26.67;;;20.00;;
35562;SDS011;21665;40.108;18.302;2022-08-25T17:53:52;25.98;;;20.50;;
35562;SDS011;21665;40.108;18.302;2022-08-25T17:56:19;26.98;;;20.10;;
35562;SDS011;21665;40.108;18.302;2022-08-25T17:58:47;26.17;;;20.25;;
35562;SDS011;21665;40.108;18.302;2022-08-25T18:01:21;25.83;;;21.00;;
35562;SDS011;21665;40.108;18.302;2022-08-25T18:03:52;30.38;;;21.73;;
35562;SDS011;21665;40.108;18.302;2022-08-25T18:06:20;25.35;;;21.10;;
35562;SDS011;21665;40.108;18.302;2022-08-25T18:08:48;27.38;;;21.20;;
35562;SDS011;21665;40.108;18.302;2022-08-25T18:11:16;27.92;;;20.63;;
35562;SDS011;21665;40.108;18.302;2022-08-25T18:13:43;26.45;;;19.38;;
35562;SDS011;21665;40.108;18.302;2022-08-25T18:16:11;25.75;;;18.05;;
35562;SDS011;21665;40.108;18.302;2022-08-25T18:18:39;28.70;;;19.33;;
35562;SDS011;21665;40.108;18.302;2022-08-25T18:21:09;27.45;;;17.83;;
35562;SDS011;21665;40.108;18.302;2022-08-25T18:23:41;21.58;;;18.70;;
35562;SDS011;21665;40.108;18.302;2022-08-25T18:26:14;21.33;;;18.60;;
